createdAt,value
2022-11-06T00:00:08.293Z,2.30
2022-11-06T00:00:17.360Z,2.10
2022-11-06T00:00:37.845Z,1.92
2022-11-06T00:00:45.635Z,2.10
2022-11-06T00:00:53.093Z,2.02
2022-11-06T00:01:04.907Z,2.07
2022-11-06T00:01:15.106Z,2.14
2022-11-06T00:01:22.598Z,2.13
2022-11-06T00:01:30.092Z,2.12
2022-11-06T00:01:37.494Z,2.08
2022-11-06T00:01:57.482Z,2.13
2022-11-06T00:02:05.078Z,2.16
2022-11-06T00:02:17.448Z,2.27
2022-11-06T00:02:27.902Z,2.30
2022-11-06T00:02:35.367Z,2.37
2022-11-06T00:02:43.062Z,2.30
2022-11-06T00:02:50.562Z,2.20
2022-11-06T00:02:59.919Z,2.10
2022-11-06T00:03:07.656Z,2.03
2022-11-06T00:03:27.480Z,1.91
2022-11-06T00:03:35.697Z,2.00
2022-11-06T00:03:43.307Z,1.93
2022-11-06T00:03:53.313Z,1.95
2022-11-06T00:04:00.784Z,2.09
2022-11-06T00:04:08.256Z,1.93
2022-11-06T00:04:30.383Z,1.98
2022-11-06T00:04:37.733Z,1.73
2022-11-06T00:04:45.215Z,1.60
2022-11-06T00:04:52.610Z,1.50
2022-11-06T00:05:19.963Z,1.52
2022-11-06T00:05:47.114Z,1.74
2022-11-06T00:06:13.057Z,2.04
2022-11-06T00:06:39.624Z,1.84
2022-11-06T00:06:49.645Z,1.82
2022-11-06T00:06:56.991Z,1.84
2022-11-06T00:07:04.462Z,1.90
2022-11-06T00:07:11.847Z,1.97
2022-11-06T00:07:19.298Z,1.97
2022-11-06T00:07:26.686Z,2.00
2022-11-06T00:07:34.087Z,2.00
2022-11-06T00:07:41.402Z,1.80
2022-11-06T00:07:49.371Z,1.84
2022-11-06T00:07:57.320Z,1.80
2022-11-06T00:08:05.058Z,1.85
2022-11-06T00:08:12.887Z,1.90
2022-11-06T00:08:33.991Z,1.95
2022-11-06T00:08:41.413Z,2.00
2022-11-06T00:08:48.782Z,2.00
2022-11-06T00:08:56.815Z,1.90
2022-11-06T00:09:07.834Z,1.73
2022-11-06T00:09:18.623Z,1.60
2022-11-06T00:09:26.035Z,1.56
2022-11-06T00:09:34.983Z,1.52
2022-11-06T00:09:42.355Z,1.60
2022-11-06T00:09:49.765Z,1.60
2022-11-06T00:09:57.128Z,1.60
2022-11-06T00:10:04.753Z,1.60
2022-11-06T00:10:12.238Z,1.60
2022-11-06T00:10:19.895Z,1.64
2022-11-06T00:10:27.627Z,1.70
2022-11-06T00:10:35.101Z,1.75
2022-11-06T00:10:42.676Z,1.80
2022-11-06T00:10:50.148Z,1.83
2022-11-06T00:11:17.873Z,1.76
2022-11-06T00:11:25.489Z,1.74
2022-11-06T00:11:33.114Z,1.80
2022-11-06T00:11:41.940Z,1.83
2022-11-06T00:11:51.077Z,1.80
2022-11-06T00:11:58.518Z,1.70
2022-11-06T00:12:06.277Z,1.70
2022-11-06T00:12:13.721Z,1.73
2022-11-06T00:12:21.173Z,1.90
2022-11-06T00:12:41.269Z,2.00
2022-11-06T00:12:49.499Z,2.10
2022-11-06T00:12:56.992Z,2.27
2022-11-06T00:13:04.809Z,2.30
2022-11-06T00:13:12.328Z,2.30
2022-11-06T00:13:19.808Z,2.30
2022-11-06T00:13:41.778Z,2.29
2022-11-06T00:13:49.714Z,2.17
2022-11-06T00:13:58.120Z,2.05
2022-11-06T00:14:05.987Z,1.90
2022-11-06T00:14:13.561Z,1.90
2022-11-06T00:14:20.987Z,2.00
2022-11-06T00:14:40.733Z,2.13
2022-11-06T00:14:48.252Z,2.17
2022-11-06T00:14:55.632Z,2.00
2022-11-06T00:15:03.090Z,1.93
2022-11-06T00:15:10.981Z,1.90
2022-11-06T00:15:31.346Z,1.91
2022-11-06T00:15:38.775Z,2.00
2022-11-06T00:15:46.134Z,2.00
2022-11-06T00:15:53.782Z,1.97
2022-11-06T00:16:08.892Z,1.73
2022-11-06T00:16:16.569Z,1.56
2022-11-06T00:16:49.415Z,1.71
2022-11-06T00:16:56.783Z,1.78
2022-11-06T00:17:04.250Z,1.80
2022-11-06T00:17:11.618Z,1.80
2022-11-06T00:17:19.022Z,1.80
2022-11-06T00:17:26.378Z,1.72
2022-11-06T00:17:33.888Z,1.80
2022-11-06T00:17:41.337Z,1.90
2022-11-06T00:17:51.887Z,2.00
2022-11-06T00:17:59.258Z,2.06
2022-11-06T00:18:06.712Z,1.93
2022-11-06T00:18:14.363Z,1.90
2022-11-06T00:18:25.440Z,1.90
2022-11-06T00:18:34.150Z,1.93
2022-11-06T00:18:42.736Z,1.99
2022-11-06T00:18:53.858Z,2.20
2022-11-06T00:19:02.031Z,2.29
2022-11-06T00:19:21.816Z,2.22
2022-11-06T00:19:29.255Z,2.15
2022-11-06T00:19:36.648Z,2.18
2022-11-06T00:19:44.126Z,2.12
2022-11-06T00:19:53.877Z,1.98
2022-11-06T00:20:01.351Z,1.93
2022-11-06T00:20:09.807Z,2.02
2022-11-06T00:20:30.063Z,1.96
2022-11-06T00:20:37.731Z,1.78
2022-11-06T00:20:45.132Z,1.76
2022-11-06T00:20:52.565Z,1.80
2022-11-06T00:21:00.300Z,1.86
2022-11-06T00:21:28.758Z,1.88
2022-11-06T00:21:37.306Z,1.89
2022-11-06T00:21:45.140Z,1.90
2022-11-06T00:21:52.586Z,1.92
2022-11-06T00:22:00.017Z,2.00
2022-11-06T00:22:07.392Z,2.00
2022-11-06T00:22:16.636Z,2.00
2022-11-06T00:22:24.044Z,1.89
2022-11-06T00:22:34.245Z,1.68
2022-11-06T00:22:41.620Z,1.51
2022-11-06T00:23:01.631Z,1.67
2022-11-06T00:23:09.042Z,1.70
2022-11-06T00:23:16.454Z,1.67
2022-11-06T00:23:24.150Z,1.60
2022-11-06T00:23:31.607Z,1.70
2022-11-06T00:23:52.520Z,1.52
2022-11-06T00:24:03.166Z,1.50
2022-11-06T00:24:13.885Z,1.61
2022-11-06T00:24:21.311Z,1.81
2022-11-06T00:24:28.788Z,1.83
2022-11-06T00:24:36.257Z,1.80
2022-11-06T00:24:43.711Z,1.80
2022-11-06T00:24:51.029Z,1.70
2022-11-06T00:25:11.295Z,1.67
2022-11-06T00:25:18.772Z,1.70
2022-11-06T00:25:26.133Z,1.73
2022-11-06T00:25:33.564Z,1.70
2022-11-06T00:25:42.322Z,1.60
2022-11-06T00:25:53.326Z,1.60
2022-11-06T00:26:00.702Z,1.58
2022-11-06T00:26:10.095Z,1.60
2022-11-06T00:26:20.013Z,1.67
2022-11-06T00:26:31.767Z,1.69
2022-11-06T00:26:54.598Z,1.58
2022-11-06T00:27:02.145Z,1.83
2022-11-06T00:27:09.805Z,2.00
2022-11-06T00:27:17.705Z,1.97
2022-11-06T00:27:25.277Z,1.88
2022-11-06T00:27:35.528Z,1.70
2022-11-06T00:27:44.044Z,1.71
2022-11-06T00:27:51.509Z,1.73
2022-11-06T00:28:11.637Z,1.51
2022-11-06T00:28:19.982Z,1.30
2022-11-06T00:28:27.638Z,1.27
2022-11-06T00:28:35.270Z,1.20
2022-11-06T00:28:43.528Z,1.30
2022-11-06T00:28:51.943Z,1.43
2022-11-06T00:29:00.172Z,1.53
2022-11-06T00:29:20.390Z,1.61
2022-11-06T00:29:27.759Z,1.60
2022-11-06T00:29:35.629Z,1.60
2022-11-06T00:29:43.277Z,1.53
2022-11-06T00:29:50.731Z,1.50
2022-11-06T00:30:14.541Z,1.58
2022-11-06T00:30:22.006Z,1.64
2022-11-06T00:30:29.385Z,1.70
2022-11-06T00:30:37.004Z,1.70
2022-11-06T00:30:44.371Z,1.74
2022-11-06T00:30:51.811Z,1.60
2022-11-06T00:31:04.272Z,1.58
2022-11-06T00:31:15.137Z,1.56
2022-11-06T00:31:25.389Z,1.49
2022-11-06T00:31:35.930Z,1.60
2022-11-06T00:31:43.385Z,1.63
2022-11-06T00:31:51.032Z,1.78
2022-11-06T00:32:10.778Z,1.64
2022-11-06T00:32:18.268Z,1.56
2022-11-06T00:32:25.692Z,1.50
2022-11-06T00:32:33.252Z,1.53
2022-11-06T00:32:40.813Z,1.60
2022-11-06T00:33:00.922Z,1.52
2022-11-06T00:33:08.329Z,1.42
2022-11-06T00:33:15.727Z,1.30
2022-11-06T00:33:23.139Z,1.38
2022-11-06T00:33:30.694Z,1.40
2022-11-06T00:33:51.986Z,1.51
2022-11-06T00:34:01.297Z,1.60
2022-11-06T00:34:10.945Z,1.58
2022-11-06T00:34:18.398Z,1.50
2022-11-06T00:34:25.809Z,1.57
2022-11-06T00:34:33.150Z,1.53
2022-11-06T00:34:40.578Z,1.50
2022-11-06T00:35:00.941Z,1.49
2022-11-06T00:35:08.822Z,1.60
2022-11-06T00:35:16.371Z,1.60
2022-11-06T00:35:23.735Z,1.60
2022-11-06T00:35:31.881Z,1.67
2022-11-06T00:35:40.350Z,1.60
2022-11-06T00:36:02.493Z,1.63
2022-11-06T00:36:13.304Z,1.54
2022-11-06T00:36:23.158Z,1.58
2022-11-06T00:36:31.431Z,1.55
2022-11-06T00:36:39.036Z,1.70
2022-11-06T00:36:46.497Z,1.60
2022-11-06T00:36:53.842Z,1.50
2022-11-06T00:37:01.251Z,1.50
2022-11-06T00:37:21.017Z,1.55
2022-11-06T00:37:28.644Z,1.57
2022-11-06T00:37:36.234Z,1.54
2022-11-06T00:37:43.578Z,1.60
2022-11-06T00:37:51.018Z,1.52
2022-11-06T00:38:11.230Z,1.84
2022-11-06T00:38:18.797Z,1.90
2022-11-06T00:38:26.419Z,1.80
2022-11-06T00:38:34.269Z,1.80
2022-11-06T00:38:41.919Z,1.67
2022-11-06T00:38:53.040Z,1.68
2022-11-06T00:39:00.941Z,1.50
2022-11-06T00:39:09.843Z,1.57
2022-11-06T00:39:29.640Z,1.54
2022-11-06T00:39:37.062Z,1.47
2022-11-06T00:39:44.470Z,1.50
2022-11-06T00:39:51.932Z,1.40
2022-11-06T00:39:59.951Z,1.43
2022-11-06T00:40:20.234Z,1.59
2022-11-06T00:40:27.652Z,1.70
2022-11-06T00:40:35.073Z,1.70
2022-11-06T00:40:42.534Z,1.70
2022-11-06T00:40:50.011Z,1.60
2022-11-06T00:41:12.467Z,1.50
2022-11-06T00:41:20.456Z,1.48
2022-11-06T00:41:28.285Z,1.40
2022-11-06T00:41:35.776Z,1.37
2022-11-06T00:41:43.363Z,1.27
2022-11-06T00:41:50.801Z,1.26
2022-11-06T00:42:10.607Z,1.35
2022-11-06T00:42:17.981Z,1.57
2022-11-06T00:42:25.521Z,1.56
2022-11-06T00:42:32.940Z,1.50
2022-11-06T00:42:40.380Z,1.30
2022-11-06T00:43:00.040Z,1.25
2022-11-06T00:43:07.413Z,1.34
2022-11-06T00:43:14.851Z,1.45
2022-11-06T00:43:22.206Z,1.48
2022-11-06T00:43:42.668Z,1.31
2022-11-06T00:44:01.626Z,1.45
2022-11-06T00:44:10.058Z,1.55
2022-11-06T00:44:17.565Z,1.50
2022-11-06T00:44:24.948Z,1.40
2022-11-06T00:44:32.417Z,1.40
2022-11-06T00:44:39.759Z,1.50
2022-11-06T00:44:47.280Z,1.40
2022-11-06T00:44:54.784Z,1.30
2022-11-06T00:45:02.333Z,1.30
2022-11-06T00:45:10.182Z,1.35
2022-11-06T00:45:30.008Z,1.36
2022-11-06T00:45:37.501Z,1.30
2022-11-06T00:45:44.893Z,1.30
2022-11-06T00:45:52.631Z,1.32
2022-11-06T00:46:04.037Z,1.52
2022-11-06T00:46:13.784Z,1.57
2022-11-06T00:46:22.065Z,1.58
2022-11-06T00:46:30.011Z,1.50
2022-11-06T00:46:50.123Z,1.36
2022-11-06T00:46:57.538Z,1.30
2022-11-06T00:47:05.581Z,1.30
2022-11-06T00:47:13.037Z,1.50
2022-11-06T00:47:20.594Z,1.50
2022-11-06T00:47:40.636Z,1.59
2022-11-06T00:47:48.057Z,1.40
2022-11-06T00:47:55.493Z,1.40
2022-11-06T00:48:02.902Z,1.30
2022-11-06T00:48:10.681Z,1.30
2022-11-06T00:48:30.571Z,1.14
2022-11-06T00:48:39.041Z,1.20
2022-11-06T00:48:47.085Z,1.20
2022-11-06T00:48:55.801Z,1.20
2022-11-06T00:49:03.460Z,1.20
2022-11-06T00:49:10.881Z,1.25
2022-11-06T00:49:30.712Z,1.42
2022-11-06T00:49:39.206Z,1.50
2022-11-06T00:49:46.568Z,1.50
2022-11-06T00:49:53.994Z,1.48
2022-11-06T00:50:01.316Z,1.34
2022-11-06T00:50:21.535Z,1.20
2022-11-06T00:50:29.042Z,1.30
2022-11-06T00:50:36.583Z,1.30
2022-11-06T00:50:44.051Z,1.37
2022-11-06T00:50:51.652Z,1.50
2022-11-06T00:51:03.762Z,1.50
2022-11-06T00:51:13.989Z,1.45
2022-11-06T00:51:29.972Z,1.36
2022-11-06T00:51:41.204Z,1.33
2022-11-06T00:51:48.589Z,1.40
2022-11-06T00:51:56.043Z,1.42
2022-11-06T00:52:03.548Z,1.23
2022-11-06T00:52:11.018Z,1.20
2022-11-06T00:52:31.031Z,1.30
2022-11-06T00:52:38.414Z,1.30
2022-11-06T00:52:45.894Z,1.20
2022-11-06T00:52:53.843Z,1.27
2022-11-06T00:53:01.277Z,1.32
2022-11-06T00:53:21.011Z,1.34
2022-11-06T00:53:28.473Z,1.20
2022-11-06T00:53:35.995Z,1.23
2022-11-06T00:53:44.247Z,1.38
2022-11-06T00:53:56.806Z,1.47
2022-11-06T00:54:06.765Z,1.50
2022-11-06T00:54:14.690Z,1.43
2022-11-06T00:54:22.059Z,1.54
2022-11-06T00:54:41.747Z,1.40
2022-11-06T00:54:49.178Z,1.32
2022-11-06T00:54:56.578Z,1.37
2022-11-06T00:55:04.222Z,1.30
2022-11-06T00:55:11.871Z,1.40
2022-11-06T00:55:31.680Z,1.40
2022-11-06T00:55:39.152Z,1.34
2022-11-06T00:55:46.557Z,1.28
2022-11-06T00:55:54.012Z,1.30
2022-11-06T00:56:12.684Z,1.32
2022-11-06T00:56:21.154Z,1.35
2022-11-06T00:56:28.951Z,1.20
2022-11-06T00:56:36.521Z,1.22
2022-11-06T00:56:43.901Z,1.30
2022-11-06T00:56:51.376Z,1.48
2022-11-06T00:57:11.265Z,1.60
2022-11-06T00:57:18.628Z,1.46
2022-11-06T00:57:26.056Z,1.37
2022-11-06T00:57:33.415Z,1.30
2022-11-06T00:57:40.862Z,1.30
2022-11-06T00:58:00.677Z,1.35
2022-11-06T00:58:08.099Z,1.30
2022-11-06T00:58:15.790Z,1.30
2022-11-06T00:58:23.341Z,1.30
2022-11-06T00:58:30.800Z,1.17
2022-11-06T00:58:51.590Z,1.35
2022-11-06T00:59:03.925Z,1.43
2022-11-06T00:59:14.408Z,1.42
2022-11-06T00:59:21.883Z,1.41
2022-11-06T00:59:29.393Z,1.28
2022-11-06T00:59:36.915Z,1.30
2022-11-06T00:59:44.435Z,1.20
2022-11-06T00:59:51.940Z,1.24
2022-11-06T01:00:12.537Z,1.26
2022-11-06T01:00:21.002Z,1.37
2022-11-06T01:00:28.664Z,1.40
2022-11-06T01:00:36.114Z,1.37
2022-11-06T01:00:43.521Z,1.30
2022-11-06T01:00:50.941Z,1.28
2022-11-06T01:01:15.748Z,1.30
2022-11-06T01:01:25.742Z,1.33
2022-11-06T01:01:36.236Z,1.50
2022-11-06T01:01:45.471Z,1.37
2022-11-06T01:01:53.193Z,1.24
2022-11-06T01:02:00.964Z,1.20
2022-11-06T01:02:08.504Z,1.23
2022-11-06T01:02:17.570Z,1.40
2022-11-06T01:02:25.117Z,1.49
2022-11-06T01:02:32.847Z,1.50
2022-11-06T01:02:40.427Z,1.44
2022-11-06T01:03:00.684Z,1.30
2022-11-06T01:03:08.225Z,1.23
2022-11-06T01:03:15.637Z,1.27
2022-11-06T01:03:23.136Z,1.25
2022-11-06T01:03:30.517Z,1.20
2022-11-06T01:03:39.691Z,1.30
2022-11-06T01:04:07.738Z,1.27
2022-11-06T01:04:20.098Z,1.16
2022-11-06T01:04:27.564Z,1.27
2022-11-06T01:04:35.212Z,1.30
2022-11-06T01:04:42.919Z,1.50
2022-11-06T01:04:50.420Z,1.42
2022-11-06T01:04:58.024Z,1.50
2022-11-06T01:05:06.091Z,1.50
2022-11-06T01:05:13.809Z,1.37
2022-11-06T01:05:21.320Z,1.38
2022-11-06T01:05:42.370Z,1.40
2022-11-06T01:05:49.719Z,1.40
2022-11-06T01:06:03.528Z,1.40
2022-11-06T01:06:14.031Z,1.36
2022-11-06T01:06:24.398Z,1.29
2022-11-06T01:06:35.410Z,1.23
2022-11-06T01:06:46.931Z,1.12
2022-11-06T01:06:57.025Z,1.06
2022-11-06T01:07:04.471Z,1.07
2022-11-06T01:07:11.852Z,1.10
2022-11-06T01:07:19.381Z,1.20
2022-11-06T01:07:26.745Z,1.27
2022-11-06T01:07:34.255Z,1.30
2022-11-06T01:07:41.704Z,1.23
2022-11-06T01:08:01.621Z,1.14
2022-11-06T01:08:09.006Z,1.20
2022-11-06T01:08:16.451Z,1.20
2022-11-06T01:08:23.840Z,1.23
2022-11-06T01:08:32.065Z,1.27
2022-11-06T01:08:39.953Z,1.30
2022-11-06T01:09:01.217Z,1.35
2022-11-06T01:09:10.057Z,1.31
2022-11-06T01:09:20.700Z,1.30
2022-11-06T01:09:29.211Z,1.10
2022-11-06T01:09:36.731Z,1.11
2022-11-06T01:09:44.563Z,1.12
2022-11-06T01:09:52.084Z,1.10
2022-11-06T01:10:12.034Z,1.14
2022-11-06T01:10:19.513Z,1.27
2022-11-06T01:10:27.033Z,1.26
2022-11-06T01:10:34.491Z,1.30
2022-11-06T01:10:41.995Z,1.40
2022-11-06T01:11:13.784Z,1.40
2022-11-06T01:11:24.418Z,1.33
2022-11-06T01:12:06.825Z,1.30
2022-11-06T01:12:14.152Z,1.34
2022-11-06T01:12:22.245Z,1.19
2022-11-06T01:12:32.285Z,1.20
2022-11-06T01:12:39.836Z,1.20
2022-11-06T01:12:47.303Z,1.25
2022-11-06T01:12:54.812Z,1.30
2022-11-06T01:13:02.313Z,1.23
2022-11-06T01:13:09.789Z,1.20
2022-11-06T01:13:17.545Z,1.18
2022-11-06T01:13:25.062Z,1.10
2022-11-06T01:13:32.564Z,1.28
2022-11-06T01:13:41.021Z,1.30
2022-11-06T01:13:51.577Z,1.36
2022-11-06T01:14:00.735Z,1.40
2022-11-06T01:14:11.173Z,1.36
2022-11-06T01:14:20.418Z,1.31
2022-11-06T01:14:28.440Z,1.20
2022-11-06T01:14:36.095Z,1.13
2022-11-06T01:14:44.218Z,1.00
2022-11-06T01:14:51.753Z,1.03
2022-11-06T01:15:01.873Z,1.02
2022-11-06T01:15:09.745Z,1.17
2022-11-06T01:15:17.293Z,1.20
2022-11-06T01:15:24.741Z,1.20
2022-11-06T01:15:32.494Z,1.12
2022-11-06T01:15:40.027Z,1.10
2022-11-06T01:15:47.501Z,1.10
2022-11-06T01:16:17.344Z,1.17
2022-11-06T01:16:25.909Z,1.30
2022-11-06T01:16:33.725Z,1.30
2022-11-06T01:16:41.649Z,1.18
2022-11-06T01:16:49.890Z,1.10
2022-11-06T01:16:57.439Z,1.10
2022-11-06T01:17:04.881Z,1.00
2022-11-06T01:17:13.112Z,1.03
2022-11-06T01:17:20.441Z,1.07
2022-11-06T01:17:29.281Z,1.10
2022-11-06T01:17:36.675Z,1.10
2022-11-06T01:17:44.156Z,1.18
2022-11-06T01:18:03.960Z,1.39
2022-11-06T01:18:11.582Z,1.40
2022-11-06T01:18:19.192Z,1.30
2022-11-06T01:18:26.557Z,1.22
2022-11-06T01:18:34.769Z,1.10
2022-11-06T01:18:44.004Z,1.12
2022-11-06T01:18:52.569Z,1.20
2022-11-06T01:19:14.843Z,1.31
2022-11-06T01:19:23.184Z,1.27
2022-11-06T01:19:30.798Z,1.27
2022-11-06T01:19:38.603Z,1.10
2022-11-06T01:19:45.952Z,1.10
2022-11-06T01:19:53.607Z,1.10
2022-11-06T01:20:13.602Z,1.11
2022-11-06T01:20:21.057Z,1.20
2022-11-06T01:20:28.515Z,1.20
2022-11-06T01:20:38.163Z,1.15
2022-11-06T01:20:45.702Z,1.10
2022-11-06T01:20:53.183Z,1.03
2022-11-06T01:21:05.143Z,1.00
2022-11-06T01:21:16.390Z,1.00
2022-11-06T01:21:26.523Z,1.04
2022-11-06T01:21:36.642Z,1.16
2022-11-06T01:21:47.121Z,1.14
2022-11-06T01:21:54.787Z,1.10
2022-11-06T01:22:02.330Z,1.00
2022-11-06T01:22:22.243Z,0.90
2022-11-06T01:22:29.649Z,1.00
2022-11-06T01:22:37.156Z,1.03
2022-11-06T01:22:44.584Z,1.10
2022-11-06T01:23:04.244Z,1.05
2022-11-06T01:23:11.663Z,1.00
2022-11-06T01:23:19.052Z,1.10
2022-11-06T01:23:26.554Z,1.10
2022-11-06T01:23:34.360Z,1.20
2022-11-06T01:23:42.497Z,1.20
2022-11-06T01:23:55.052Z,1.10
2022-11-06T01:24:05.613Z,1.16
2022-11-06T01:24:19.136Z,1.32
2022-11-06T01:24:28.835Z,1.33
2022-11-06T01:24:36.472Z,1.23
2022-11-06T01:24:44.004Z,1.13
2022-11-06T01:25:04.199Z,1.19
2022-11-06T01:25:11.659Z,1.20
2022-11-06T01:25:19.041Z,1.16
2022-11-06T01:25:26.522Z,1.10
2022-11-06T01:25:34.046Z,1.12
2022-11-06T01:26:01.649Z,1.09
2022-11-06T01:26:11.247Z,0.98
2022-11-06T01:26:28.981Z,1.10
2022-11-06T01:27:04.854Z,1.10
2022-11-06T01:27:26.015Z,0.91
2022-11-06T01:27:34.423Z,1.49
2022-11-06T01:27:41.997Z,2.30
2022-11-06T01:27:49.506Z,2.33
2022-11-06T01:27:57.009Z,2.40
2022-11-06T01:28:04.642Z,1.20
2022-11-06T01:28:12.365Z,1.20
2022-11-06T01:28:21.228Z,1.10
2022-11-06T01:28:29.518Z,1.10
2022-11-06T01:28:39.107Z,1.10
2022-11-06T01:28:47.500Z,1.06
2022-11-06T01:28:57.049Z,1.02
2022-11-06T01:29:06.522Z,1.10
2022-11-06T01:29:16.262Z,1.10
2022-11-06T01:29:23.759Z,1.26
2022-11-06T01:29:31.296Z,1.20
2022-11-06T01:29:38.775Z,1.22
2022-11-06T01:29:46.156Z,1.20
2022-11-06T01:29:53.591Z,1.07
2022-11-06T01:30:01.463Z,0.96
2022-11-06T01:30:09.721Z,0.90
2022-11-06T01:30:17.154Z,1.00
2022-11-06T01:30:24.677Z,1.00
2022-11-06T01:30:32.149Z,1.07
2022-11-06T01:30:39.659Z,1.03
2022-11-06T01:30:47.126Z,1.00
2022-11-06T01:30:55.297Z,1.00
2022-11-06T01:31:05.536Z,1.10
2022-11-06T01:31:16.756Z,1.05
2022-11-06T01:31:27.084Z,1.04
2022-11-06T01:31:36.098Z,1.11
2022-11-06T01:31:56.072Z,1.10
2022-11-06T01:32:03.907Z,1.02
2022-11-06T01:32:11.510Z,1.02
2022-11-06T01:32:19.015Z,1.10
2022-11-06T01:32:26.522Z,1.20
2022-11-06T01:32:35.086Z,1.20
2022-11-06T01:32:54.853Z,1.10
2022-11-06T01:33:02.332Z,1.10
2022-11-06T01:33:09.702Z,1.08
2022-11-06T01:33:17.174Z,1.12
2022-11-06T01:33:24.893Z,1.10
2022-11-06T01:33:45.259Z,0.99
2022-11-06T01:33:53.054Z,1.00
2022-11-06T01:34:02.268Z,1.20
2022-11-06T01:34:11.825Z,1.24
2022-11-06T01:34:19.358Z,1.30
2022-11-06T01:34:27.056Z,1.20
2022-11-06T01:34:34.627Z,1.10
2022-11-06T01:34:54.437Z,1.02
2022-11-06T01:35:01.867Z,1.00
2022-11-06T01:35:09.403Z,0.93
2022-11-06T01:35:16.898Z,0.90
2022-11-06T01:35:36.637Z,0.95
2022-11-06T01:35:48.166Z,1.00
2022-11-06T01:35:55.627Z,0.92
2022-11-06T01:36:03.093Z,0.90
2022-11-06T01:36:12.516Z,0.80
2022-11-06T01:36:20.940Z,0.81
2022-11-06T01:36:29.621Z,0.97
2022-11-06T01:36:37.144Z,1.06
2022-11-06T01:36:44.800Z,1.10
2022-11-06T01:37:05.028Z,1.10
2022-11-06T01:37:14.776Z,1.10
2022-11-06T01:37:22.786Z,1.00
2022-11-06T01:37:30.334Z,1.00
2022-11-06T01:37:37.958Z,1.00
2022-11-06T01:37:45.396Z,1.07
2022-11-06T01:38:05.041Z,1.13
2022-11-06T01:38:12.817Z,1.10
2022-11-06T01:38:20.438Z,1.08
2022-11-06T01:38:28.344Z,1.00
2022-11-06T01:38:35.708Z,1.00
2022-11-06T01:38:45.047Z,1.00
2022-11-06T01:39:09.017Z,1.16
2022-11-06T01:39:17.365Z,1.20
2022-11-06T01:39:24.766Z,1.14
2022-11-06T01:39:32.521Z,0.90
2022-11-06T01:39:39.947Z,0.90
2022-11-06T01:39:49.262Z,0.90
2022-11-06T01:39:56.675Z,1.02
2022-11-06T01:40:05.131Z,1.12
2022-11-06T01:40:19.838Z,1.17
2022-11-06T01:40:27.620Z,1.10
2022-11-06T01:40:42.082Z,1.10
2022-11-06T01:40:50.012Z,1.04
2022-11-06T01:40:57.663Z,1.00
2022-11-06T01:41:05.340Z,1.00
2022-11-06T01:41:15.896Z,1.00
2022-11-06T01:41:29.859Z,1.05
2022-11-06T01:41:40.090Z,1.13
2022-11-06T01:41:51.975Z,1.10
2022-11-06T01:41:59.696Z,1.00
2022-11-06T01:42:07.236Z,1.00
2022-11-06T01:42:16.326Z,1.03
2022-11-06T01:42:36.114Z,1.04
2022-11-06T01:42:43.523Z,1.00
2022-11-06T01:42:50.933Z,1.00
2022-11-06T01:42:59.711Z,1.10
2022-11-06T01:43:16.355Z,1.10
2022-11-06T01:43:26.627Z,1.15
2022-11-06T01:44:26.300Z,1.26
2022-11-06T01:44:36.333Z,1.31
2022-11-06T01:44:43.773Z,1.30
2022-11-06T01:45:31.706Z,1.24
2022-11-06T01:45:39.873Z,1.31
2022-11-06T01:45:50.046Z,1.52
2022-11-06T01:45:57.637Z,1.60
2022-11-06T01:46:08.145Z,1.70
2022-11-06T01:46:17.757Z,1.78
2022-11-06T01:46:33.943Z,1.73
2022-11-06T01:46:41.571Z,1.70
2022-11-06T01:46:48.913Z,1.80
2022-11-06T01:46:56.720Z,1.87
2022-11-06T01:47:07.673Z,1.82
2022-11-06T01:47:26.220Z,1.97
2022-11-06T01:47:37.460Z,1.80
2022-11-06T01:47:45.306Z,1.58
2022-11-06T01:47:52.673Z,1.53
2022-11-06T01:48:00.853Z,1.50
2022-11-06T01:48:08.453Z,1.45
2022-11-06T01:48:18.086Z,1.50
2022-11-06T01:48:28.072Z,1.40
2022-11-06T01:48:36.860Z,1.30
2022-11-06T01:49:10.865Z,1.10
2022-11-06T01:49:18.657Z,1.20
2022-11-06T01:49:27.797Z,1.43
2022-11-06T01:49:38.845Z,1.38
2022-11-06T01:49:46.739Z,1.16
2022-11-06T01:49:58.248Z,1.03
2022-11-06T01:50:09.264Z,1.10
2022-11-06T01:50:17.969Z,1.21
2022-11-06T01:50:25.900Z,1.30
2022-11-06T01:50:33.989Z,1.18
2022-11-06T01:50:44.192Z,1.02
2022-11-06T01:50:55.838Z,1.01
2022-11-06T01:51:03.683Z,1.00
2022-11-06T01:51:12.253Z,1.10
2022-11-06T01:51:21.543Z,1.20
2022-11-06T01:51:31.853Z,1.30
2022-11-06T01:51:55.330Z,1.38
2022-11-06T01:52:11.943Z,1.16
2022-11-06T01:52:20.771Z,1.10
2022-11-06T01:52:29.873Z,1.20
2022-11-06T01:52:37.748Z,1.23
2022-11-06T01:52:47.919Z,1.20
2022-11-06T01:52:56.103Z,1.00
2022-11-06T01:53:04.670Z,0.98
2022-11-06T01:53:13.734Z,0.90
2022-11-06T01:53:22.471Z,0.94
2022-11-06T01:53:30.795Z,1.00
2022-11-06T01:53:38.662Z,1.07
2022-11-06T01:53:46.648Z,1.10
2022-11-06T01:53:55.049Z,1.10
2022-11-06T01:54:05.196Z,1.10
2022-11-06T01:54:13.001Z,1.10
2022-11-06T01:54:22.661Z,1.02
2022-11-06T01:54:31.391Z,0.91
2022-11-06T01:54:41.189Z,0.90
2022-11-06T01:54:52.398Z,0.85
2022-11-06T01:55:08.515Z,0.90
2022-11-06T01:55:38.703Z,0.93
2022-11-06T01:55:50.167Z,0.99
2022-11-06T01:56:02.207Z,0.91
2022-11-06T01:56:12.321Z,1.00
2022-11-06T01:56:20.897Z,1.10
2022-11-06T01:56:28.401Z,1.17
2022-11-06T01:56:38.328Z,1.20
2022-11-06T01:56:47.946Z,1.00
2022-11-06T01:56:58.745Z,1.00
2022-11-06T01:57:06.953Z,0.90
2022-11-06T01:57:14.471Z,0.95
2022-11-06T01:57:22.656Z,1.10
2022-11-06T01:57:30.189Z,1.20
2022-11-06T01:57:37.683Z,1.20
2022-11-06T01:57:46.045Z,1.23
2022-11-06T01:57:54.181Z,1.20
2022-11-06T01:58:03.911Z,1.17
2022-11-06T01:58:15.465Z,1.36
2022-11-06T01:58:27.086Z,1.26
2022-11-06T01:58:37.399Z,1.10
2022-11-06T01:58:49.362Z,1.10
2022-11-06T01:58:57.218Z,1.10
2022-11-06T01:59:06.747Z,1.10
2022-11-06T01:59:17.678Z,1.00
2022-11-06T01:59:28.827Z,1.09
2022-11-06T01:59:40.384Z,1.10
2022-11-06T01:59:48.152Z,1.11
2022-11-06T01:59:56.285Z,1.17
2022-11-06T02:00:06.006Z,1.40
2022-11-06T02:00:14.327Z,1.47
2022-11-06T02:00:21.997Z,1.47
2022-11-06T02:00:31.387Z,1.36
2022-11-06T02:00:39.355Z,1.31
2022-11-06T02:00:48.577Z,1.35
2022-11-06T02:00:56.165Z,1.29
2022-11-06T02:01:04.378Z,1.20
2022-11-06T02:01:11.852Z,1.20
2022-11-06T02:01:19.876Z,1.40
2022-11-06T02:01:27.475Z,1.40
2022-11-06T02:01:35.100Z,1.50
2022-11-06T02:01:42.905Z,1.40
2022-11-06T02:01:51.730Z,1.10
2022-11-06T02:01:59.570Z,1.06
2022-11-06T02:02:07.752Z,1.17
2022-11-06T02:02:17.773Z,1.27
2022-11-06T02:02:25.466Z,1.30
2022-11-06T02:02:33.651Z,1.28
2022-11-06T02:02:54.155Z,1.10
2022-11-06T02:03:02.824Z,1.00
2022-11-06T02:03:12.897Z,1.00
2022-11-06T02:03:20.555Z,0.97
2022-11-06T02:03:27.983Z,0.95
2022-11-06T02:03:37.514Z,0.90
2022-11-06T02:04:23.469Z,0.86
2022-11-06T02:04:38.775Z,0.94
2022-11-06T02:04:48.584Z,1.02
2022-11-06T02:04:55.992Z,0.91
2022-11-06T02:05:03.513Z,0.90
2022-11-06T02:05:10.975Z,0.90
2022-11-06T02:05:18.511Z,0.90
2022-11-06T02:05:26.598Z,0.90
2022-11-06T02:05:34.057Z,0.90
2022-11-06T02:05:41.983Z,0.90
2022-11-06T02:05:49.622Z,0.85
2022-11-06T02:05:58.461Z,0.90
2022-11-06T02:06:08.495Z,0.97
2022-11-06T02:06:16.293Z,1.00
2022-11-06T02:06:24.592Z,0.93
2022-11-06T02:06:33.131Z,0.90
2022-11-06T02:06:40.776Z,0.90
2022-11-06T02:06:49.203Z,1.06
2022-11-06T02:06:57.840Z,1.17
2022-11-06T02:07:06.764Z,1.14
2022-11-06T02:07:14.686Z,1.17
2022-11-06T02:07:22.285Z,1.10
2022-11-06T02:07:30.170Z,0.97
2022-11-06T02:07:38.132Z,1.00
2022-11-06T02:07:46.150Z,1.00
2022-11-06T02:07:54.886Z,1.00
2022-11-06T02:08:03.474Z,1.00
2022-11-06T02:08:15.315Z,0.91
2022-11-06T02:08:23.538Z,0.90
2022-11-06T02:08:44.201Z,0.94
2022-11-06T02:08:52.177Z,0.90
2022-11-06T02:09:00.328Z,0.90
2022-11-06T02:09:12.521Z,1.00
2022-11-06T02:09:20.417Z,1.01
2022-11-06T02:09:28.602Z,0.92
2022-11-06T02:09:36.285Z,0.90
2022-11-06T02:09:43.914Z,0.90
2022-11-06T02:10:04.591Z,1.00
2022-11-06T02:10:12.152Z,1.00
2022-11-06T02:10:19.675Z,1.00
2022-11-06T02:10:27.999Z,1.03
2022-11-06T02:10:35.751Z,1.00
2022-11-06T02:10:44.074Z,1.05
2022-11-06T02:10:53.110Z,1.00
2022-11-06T02:11:12.923Z,0.90
2022-11-06T02:11:20.487Z,0.90
2022-11-06T02:11:29.661Z,0.80
2022-11-06T02:12:13.388Z,0.87
2022-11-06T02:12:52.019Z,0.90
2022-11-06T02:13:18.977Z,0.90
2022-11-06T02:13:49.530Z,0.86
2022-11-06T02:14:33.963Z,0.89
2022-11-06T02:14:54.170Z,0.95
2022-11-06T02:15:15.896Z,0.93
2022-11-06T02:16:05.631Z,0.96
2022-11-06T02:16:40.625Z,0.86
2022-11-06T02:17:23.829Z,0.80
2022-11-06T02:17:40.013Z,0.88
2022-11-06T02:18:15.174Z,0.90
2022-11-06T02:18:33.608Z,0.94
2022-11-06T02:18:58.004Z,1.10
2022-11-06T02:19:23.678Z,1.10
2022-11-06T02:20:10.821Z,0.90
2022-11-06T02:20:43.511Z,0.86
2022-11-06T02:21:26.401Z,0.84
2022-11-06T02:22:05.244Z,0.80
2022-11-06T02:22:47.696Z,0.80
2022-11-06T02:23:07.447Z,0.84
2022-11-06T02:23:30.258Z,0.82
2022-11-06T02:23:58.263Z,0.74